createdAt,value
2018-06-16T00:00:16.670Z,101569.14
2018-06-16T00:02:46.089Z,101558.07
2018-06-16T00:05:15.521Z,101565.08
2018-06-16T00:07:45.038Z,101553.59
2018-06-16T00:10:14.759Z,101556.25
2018-06-16T00:12:44.513Z,101551.34
2018-06-16T00:15:14.334Z,101554.41
2018-06-16T00:17:43.753Z,101557.98
2018-06-16T00:20:13.218Z,101554.61
2018-06-16T00:22:42.605Z,101557.31
2018-06-16T00:25:12.024Z,101559.03
2018-06-16T00:27:41.748Z,101556.05
2018-06-16T00:30:11.466Z,101559.96
2018-06-16T00:32:40.730Z,101556.86
2018-06-16T00:35:10.348Z,101554.66
2018-06-16T00:37:39.749Z,101553.04
2018-06-16T00:40:09.284Z,101549.17
2018-06-16T00:42:39.162Z,101548.81
2018-06-16T00:45:08.872Z,101555.05
2018-06-16T00:47:38.598Z,101544.94
2018-06-16T00:50:08.210Z,101552.53
2018-06-16T00:52:37.904Z,101550.88
2018-06-16T00:55:07.850Z,101560.61
2018-06-16T00:57:44.819Z,101561.53
2018-06-16T01:00:14.906Z,101566.80
2018-06-16T01:02:44.760Z,101566.73
2018-06-16T01:05:14.240Z,101568.09
2018-06-16T01:07:43.852Z,101569.50
2018-06-16T01:10:13.573Z,101562.52
2018-06-16T01:12:42.736Z,101571.88
2018-06-16T01:15:12.282Z,101567.05
2018-06-16T01:17:42.017Z,101569.70
2018-06-16T01:20:10.979Z,101572.35
2018-06-16T01:22:40.691Z,101569.36
2018-06-16T01:25:10.376Z,101564.48
2018-06-16T01:27:39.586Z,101562.72
2018-06-16T01:30:09.157Z,101561.39
2018-06-16T01:32:38.657Z,101561.90
2018-06-16T01:35:07.754Z,101561.02
2018-06-16T01:37:37.512Z,101565.44
2018-06-16T01:40:06.961Z,101563.73
2018-06-16T01:42:36.466Z,101567.34
2018-06-16T01:48:06.263Z,101570.02
2018-06-16T01:50:35.946Z,101570.91
2018-06-16T01:53:05.356Z,101569.67
2018-06-16T01:55:35.053Z,101571.88
2018-06-16T01:58:04.814Z,101574.59
2018-06-16T02:00:34.186Z,101574.62
2018-06-16T02:03:04.481Z,101583.02
2018-06-16T02:05:34.122Z,101585.27
2018-06-16T02:08:03.572Z,101581.66
2018-06-16T02:10:33.213Z,101583.91
2018-06-16T02:13:02.645Z,101584.31
2018-06-16T02:15:32.044Z,101576.38
2018-06-16T02:18:01.731Z,101575.62
2018-06-16T02:20:32.196Z,101579.13
2018-06-16T02:23:02.193Z,101585.76
2018-06-16T02:34:37.344Z,101582.30
2018-06-16T02:37:06.569Z,101585.34
2018-06-16T02:39:35.840Z,101580.92
2018-06-16T02:42:05.530Z,101572.91
2018-06-16T02:44:34.962Z,101582.16
2018-06-16T02:47:04.394Z,101580.81
2018-06-16T02:49:34.113Z,101579.01
2018-06-16T02:52:03.352Z,101574.53
2018-06-16T02:54:32.582Z,101583.34
2018-06-16T02:57:02.469Z,101581.96
2018-06-16T02:59:31.887Z,101584.17
2018-06-16T03:02:01.223Z,101583.28
2018-06-16T03:04:30.891Z,101584.14
2018-06-16T03:07:00.282Z,101591.22
2018-06-16T03:09:29.782Z,101593.87
2018-06-16T03:11:59.506Z,101593.80
2018-06-16T03:14:28.896Z,101593.80
2018-06-16T03:16:58.258Z,101592.89
2018-06-16T03:19:28.219Z,101602.15
2018-06-16T03:21:57.808Z,101605.22
2018-06-16T03:24:27.196Z,101607.45
2018-06-16T03:26:56.849Z,101608.81
2018-06-16T03:29:26.192Z,101615.92
2018-06-16T03:31:55.494Z,101615.95
2018-06-16T03:34:25.419Z,101611.11
2018-06-16T03:36:54.819Z,101621.31
2018-06-16T03:39:24.118Z,101616.00
2018-06-16T03:41:53.651Z,101614.18
2018-06-16T03:44:22.721Z,101618.61
2018-06-16T03:46:52.065Z,101615.48
2018-06-16T03:49:21.990Z,101611.81
2018-06-16T03:51:51.310Z,101609.61
2018-06-16T03:54:20.379Z,101613.11
2018-06-16T03:56:49.966Z,101619.25
2018-06-16T03:59:19.152Z,101613.91
2018-06-16T04:01:48.539Z,101617.41
2018-06-16T04:04:18.481Z,101612.04
2018-06-16T04:06:48.020Z,101614.69
2018-06-16T04:09:17.421Z,101496.56
2018-06-16T04:11:47.134Z,101610.17
2018-06-16T04:14:16.419Z,101607.48
2018-06-16T04:16:45.855Z,101607.45
2018-06-16T04:19:15.769Z,101615.79
2018-06-16T04:21:45.346Z,101615.27
2018-06-16T04:24:14.551Z,101609.86
2018-06-16T04:26:44.415Z,101617.78
2018-06-16T04:29:13.396Z,101619.00
2018-06-16T04:31:42.659Z,101610.55
2018-06-16T04:34:12.365Z,101615.31
2018-06-16T04:36:41.757Z,101615.56
2018-06-16T04:39:11.307Z,101615.84
2018-06-16T04:41:41.427Z,101617.86
2018-06-16T04:44:10.707Z,101617.69
2018-06-16T04:46:41.367Z,101620.35
2018-06-16T04:49:13.114Z,101616.27
2018-06-16T04:51:44.163Z,101615.34
2018-06-16T04:54:13.968Z,101621.06
2018-06-16T04:56:44.131Z,101621.06
2018-06-16T04:59:14.775Z,101627.63
2018-06-16T05:01:46.935Z,101622.70
2018-06-16T05:04:17.126Z,101620.89
2018-06-16T05:06:47.107Z,101614.20
2018-06-16T05:09:16.627Z,101618.89
2018-06-16T05:11:45.985Z,101621.91
2018-06-16T05:14:16.698Z,101622.10
2018-06-16T05:16:49.121Z,101617.81
2018-06-16T05:19:18.911Z,101615.55
2018-06-16T05:21:49.693Z,101621.27
2018-06-16T05:24:20.839Z,101624.22
2018-06-16T05:26:52.403Z,101625.31
2018-06-16T05:29:22.584Z,101633.39
2018-06-16T05:31:52.570Z,101635.50
2018-06-16T05:34:23.937Z,101634.22
2018-06-16T05:36:53.568Z,101636.05
2018-06-16T05:39:23.711Z,101638.61
2018-06-16T05:41:53.854Z,101639.55
2018-06-16T05:44:24.263Z,101644.83
2018-06-16T05:46:54.276Z,101639.11
2018-06-16T05:49:23.624Z,101647.52
2018-06-16T05:51:53.809Z,101653.38
2018-06-16T05:54:23.162Z,101642.45
2018-06-16T05:56:52.585Z,101641.42
2018-06-16T05:59:22.519Z,101643.84
2018-06-16T06:01:53.986Z,101648.86
2018-06-16T06:04:24.600Z,101650.37
2018-06-16T06:07:14.007Z,101656.64
2018-06-16T06:09:44.398Z,101653.23
2018-06-16T06:12:13.984Z,101654.77
2018-06-16T06:14:43.518Z,101658.97
2018-06-16T06:17:12.945Z,101651.77
2018-06-16T06:19:43.075Z,101654.28
2018-06-16T06:22:13.223Z,101653.89
2018-06-16T06:24:46.330Z,101652.02
2018-06-16T06:27:16.720Z,101652.95
2018-06-16T06:29:46.751Z,101654.53
2018-06-16T06:32:17.064Z,101654.45
2018-06-16T06:34:51.267Z,101653.59
2018-06-16T06:37:22.091Z,101650.05
2018-06-16T06:39:53.333Z,101656.95
2018-06-16T06:42:24.363Z,101655.91
2018-06-16T06:44:55.583Z,101648.06
2018-06-16T06:47:41.520Z,101644.01
2018-06-16T06:50:42.969Z,101648.95
2018-06-16T06:53:12.489Z,101649.34
2018-06-16T06:55:42.270Z,101650.95
2018-06-16T06:58:11.735Z,101649.97
2018-06-16T07:00:42.199Z,101645.27
2018-06-16T07:03:22.952Z,101650.87
2018-06-16T07:05:54.874Z,101645.95
2018-06-16T07:08:27.291Z,101650.33
2018-06-16T07:10:58.147Z,101389.61
2018-06-16T07:13:32.438Z,101646.39
2018-06-16T07:16:02.521Z,101650.39
2018-06-16T07:18:31.768Z,101658.32
2018-06-16T07:21:02.088Z,101656.98
2018-06-16T07:23:32.789Z,101660.48
2018-06-16T07:26:03.668Z,101658.65
2018-06-16T07:28:35.215Z,101666.58
2018-06-16T07:31:04.679Z,101657.44
2018-06-16T07:33:35.247Z,101655.83
2018-06-16T07:36:04.787Z,101659.98
2018-06-16T07:38:34.149Z,101662.95
2018-06-16T07:41:03.555Z,101661.98
2018-06-16T07:43:35.193Z,101663.20
2018-06-16T07:46:04.764Z,101662.96
2018-06-16T07:48:34.158Z,101666.59
2018-06-16T07:51:05.524Z,101659.61
2018-06-16T07:53:37.075Z,101649.98
2018-06-16T07:56:06.651Z,101657.13
2018-06-16T07:58:36.333Z,101656.73
2018-06-16T08:01:05.885Z,101670.30
2018-06-16T08:03:36.099Z,101668.30
2018-06-16T08:06:05.905Z,101675.36
2018-06-16T08:08:35.312Z,101668.91
2018-06-16T08:11:05.087Z,101674.75
2018-06-16T08:13:35.260Z,101681.97
2018-06-16T08:16:05.950Z,101677.15
2018-06-16T08:18:36.179Z,101671.45
2018-06-16T08:21:05.767Z,101675.41
2018-06-16T08:23:35.865Z,101671.02
2018-06-16T08:26:05.031Z,101670.98
2018-06-16T08:28:35.434Z,101668.48
2018-06-16T08:31:05.014Z,101677.55
2018-06-16T08:33:37.361Z,101677.72
2018-06-16T08:36:06.907Z,101674.81
2018-06-16T08:38:36.661Z,101675.13
2018-06-16T08:41:06.946Z,101677.73
2018-06-16T08:43:37.226Z,101673.14
2018-06-16T08:46:06.415Z,101681.28
2018-06-16T08:48:35.589Z,101679.43
2018-06-16T08:51:05.140Z,101679.84
2018-06-16T08:53:35.534Z,101674.17
2018-06-16T08:56:07.843Z,101678.30
2018-06-16T08:58:37.484Z,101673.63
2018-06-16T09:01:06.634Z,101672.59
2018-06-16T09:04:03.438Z,101672.55
2018-06-16T09:06:32.477Z,101676.96
2018-06-16T09:09:01.798Z,101677.73
2018-06-16T09:11:33.039Z,101677.39
2018-06-16T09:14:03.274Z,101681.42
2018-06-16T09:16:32.820Z,101675.81
2018-06-16T09:19:02.410Z,101670.98
2018-06-16T09:21:37.509Z,101678.48
2018-06-16T09:24:06.868Z,101675.36
2018-06-16T09:26:51.356Z,101673.47
2018-06-16T09:29:21.606Z,101676.94
2018-06-16T09:34:40.976Z,101674.74
2018-06-16T09:37:10.327Z,101680.31
2018-06-16T09:39:39.547Z,101674.25
2018-06-16T09:42:09.259Z,101675.69
2018-06-16T09:44:38.576Z,101679.09
2018-06-16T09:47:07.874Z,101678.00
2018-06-16T09:49:37.872Z,101677.20
2018-06-16T09:52:07.431Z,101683.14
2018-06-16T09:54:36.772Z,101686.30
2018-06-16T09:57:06.291Z,101685.99
2018-06-16T09:59:35.428Z,101681.97
2018-06-16T10:02:05.124Z,101681.23
2018-06-16T10:04:34.824Z,101689.68
2018-06-16T10:07:04.642Z,101697.37
2018-06-16T10:09:33.921Z,101700.89
2018-06-16T10:12:03.688Z,101696.08
2018-06-16T10:14:32.870Z,101697.42
2018-06-16T10:17:03.369Z,101693.70
2018-06-16T10:19:33.122Z,101694.21
2018-06-16T10:22:02.256Z,101693.27
2018-06-16T10:24:31.354Z,101696.08
2018-06-16T10:27:00.708Z,101693.38
2018-06-16T10:29:30.080Z,101694.36
2018-06-16T10:31:59.591Z,101689.46
2018-06-16T10:34:29.173Z,101680.83
2018-06-16T10:36:59.096Z,101674.83
2018-06-16T10:39:28.707Z,101676.06
2018-06-16T10:41:58.661Z,101687.92
2018-06-16T10:44:27.919Z,101678.74
2018-06-16T10:46:57.347Z,101684.14
2018-06-16T10:49:27.047Z,101674.53
2018-06-16T10:51:56.745Z,101669.21
2018-06-16T10:54:26.211Z,101675.36
2018-06-16T10:56:55.809Z,101679.88
2018-06-16T10:59:25.027Z,101679.40
2018-06-16T11:01:54.107Z,101670.61
2018-06-16T11:04:23.949Z,101679.34
2018-06-16T11:06:53.008Z,101675.16
2018-06-16T11:09:22.287Z,101677.06
2018-06-16T11:11:51.968Z,101655.53
2018-06-16T11:14:21.312Z,101679.61
2018-06-16T11:16:50.581Z,101677.42
2018-06-16T11:19:20.109Z,101670.77
2018-06-16T11:21:49.592Z,101669.82
2018-06-16T11:24:18.722Z,101666.36
2018-06-16T11:26:48.202Z,101670.84
2018-06-16T11:29:17.641Z,101663.02
2018-06-16T11:31:47.299Z,101652.94
2018-06-16T11:34:16.980Z,101648.81
2018-06-16T11:36:46.601Z,101646.81
2018-06-16T11:39:16.155Z,101639.82
2018-06-16T11:41:45.966Z,101643.11
2018-06-16T11:44:15.999Z,101644.59
2018-06-16T11:46:45.945Z,101633.36
2018-06-16T11:49:15.547Z,101640.86
2018-06-16T11:51:44.700Z,101633.19
2018-06-16T11:54:14.292Z,101631.78
2018-06-16T11:56:44.079Z,101629.45
2018-06-16T11:59:13.868Z,101629.56
2018-06-16T12:01:43.412Z,101617.96
2018-06-16T12:04:13.181Z,101619.91
2018-06-16T12:06:42.572Z,101611.33
2018-06-16T12:09:13.266Z,101616.41
2018-06-16T12:11:43.009Z,101611.12
2018-06-16T12:14:12.555Z,101604.88
2018-06-16T12:16:42.104Z,101608.30
2018-06-16T12:19:11.735Z,101603.47
2018-06-16T12:21:41.633Z,101601.84
2018-06-16T12:24:11.140Z,101601.27
2018-06-16T12:26:40.778Z,101592.75
2018-06-16T12:29:10.232Z,101593.08
2018-06-16T12:31:39.563Z,101590.40
2018-06-16T12:34:09.701Z,101588.88
2018-06-16T12:36:39.223Z,101585.78
2018-06-16T12:39:10.471Z,101586.19
2018-06-16T12:41:40.485Z,101579.33
2018-06-16T12:44:09.963Z,101580.20
2018-06-16T12:46:39.451Z,101579.09
2018-06-16T12:49:09.472Z,101577.99
2018-06-16T12:51:38.900Z,101574.34
2018-06-16T12:54:08.648Z,101571.07
2018-06-16T12:56:38.677Z,101566.48
2018-06-16T12:59:08.342Z,101564.56
2018-06-16T13:01:37.894Z,101451.36
2018-06-16T13:04:07.769Z,101554.66
2018-06-16T13:06:37.399Z,101551.31
2018-06-16T13:09:08.097Z,101552.66
2018-06-16T13:11:37.852Z,101554.63
2018-06-16T13:14:07.609Z,101553.41
2018-06-16T13:16:38.131Z,101550.22
2018-06-16T13:19:08.207Z,101543.89
2018-06-16T13:21:38.028Z,101539.89
2018-06-16T13:24:07.959Z,101540.55
2018-06-16T13:26:37.920Z,101535.95
2018-06-16T13:29:07.563Z,101536.30
2018-06-16T13:31:37.367Z,101534.16
2018-06-16T13:34:07.328Z,101532.26
2018-06-16T13:36:37.390Z,101531.19
2018-06-16T13:39:10.251Z,101536.59
2018-06-16T13:41:40.424Z,101529.59
2018-06-16T13:44:09.807Z,101526.62
2018-06-16T13:46:40.074Z,101418.55
2018-06-16T13:49:09.787Z,101517.09
2018-06-16T13:51:39.680Z,101517.39
2018-06-16T13:54:09.426Z,101515.00
2018-06-16T13:56:39.119Z,101516.66
2018-06-16T13:59:09.163Z,101521.25
2018-06-16T14:01:39.472Z,101514.41
2018-06-16T14:04:09.148Z,101504.09
2018-06-16T14:06:39.037Z,101515.11
2018-06-16T14:09:10.351Z,101511.85
2018-06-16T14:11:40.190Z,101503.02
2018-06-16T14:14:09.998Z,101508.59
2018-06-16T14:16:39.885Z,101497.63
2018-06-16T14:19:09.665Z,101502.33
2018-06-16T14:21:39.172Z,101504.73
2018-06-16T14:24:09.814Z,101503.27
2018-06-16T14:26:40.022Z,101508.51
2018-06-16T14:29:10.068Z,101504.48
2018-06-16T14:31:40.141Z,101497.77
2018-06-16T14:34:10.056Z,101502.97
2018-06-16T14:36:39.682Z,101504.05
2018-06-16T14:39:10.521Z,101495.56
2018-06-16T14:41:40.642Z,101503.97
2018-06-16T14:44:10.429Z,101496.44
2018-06-16T14:46:40.554Z,101505.40
2018-06-16T14:49:10.311Z,101504.97
2018-06-16T14:51:39.909Z,101501.23
2018-06-16T14:54:10.207Z,101508.20
2018-06-16T14:56:40.183Z,101507.58
2018-06-16T14:59:09.756Z,101513.64
2018-06-16T15:01:39.929Z,101506.86
2018-06-16T15:04:09.452Z,101505.13
2018-06-16T15:06:38.936Z,101503.37
2018-06-16T15:09:10.309Z,101505.07
2018-06-16T15:11:39.831Z,101502.86
2018-06-16T15:14:09.515Z,101505.92
2018-06-16T15:16:39.286Z,101503.03
2018-06-16T15:19:09.302Z,101502.44
2018-06-16T15:21:38.955Z,101500.39
2018-06-16T15:24:08.632Z,101496.22
2018-06-16T15:26:38.391Z,101490.17
2018-06-16T15:29:08.218Z,101480.77
2018-06-16T15:31:38.238Z,101488.38
2018-06-16T15:34:08.032Z,101484.78
2018-06-16T15:36:37.540Z,101480.59
2018-06-16T15:39:09.265Z,101478.63
2018-06-16T15:41:38.944Z,101477.03
2018-06-16T15:44:08.459Z,101475.94
2018-06-16T15:46:38.218Z,101475.88
2018-06-16T15:49:07.810Z,101466.53
2018-06-16T15:51:37.308Z,101472.69
2018-06-16T15:54:07.248Z,101471.15
2018-06-16T15:56:36.849Z,101470.89
2018-06-16T15:59:06.174Z,101467.75
2018-06-16T16:01:36.208Z,101468.38
2018-06-16T16:04:05.874Z,101476.77
2018-06-16T16:06:35.489Z,101470.26
2018-06-16T16:09:06.575Z,101475.08
2018-06-16T16:11:36.309Z,101472.29
2018-06-16T16:14:05.923Z,101471.34
2018-06-16T16:16:35.534Z,101471.41
2018-06-16T16:19:05.062Z,101470.26
2018-06-16T16:21:34.812Z,101469.31
2018-06-16T16:24:04.558Z,101472.59
2018-06-16T16:26:34.080Z,101474.98
2018-06-16T16:29:03.979Z,101467.56
2018-06-16T16:31:33.830Z,101477.13
2018-06-16T16:34:03.722Z,101477.23
2018-06-16T16:36:33.227Z,101478.28
2018-06-16T16:39:02.837Z,101466.12
2018-06-16T16:41:32.738Z,101365.12
2018-06-16T16:44:02.381Z,101478.28
2018-06-16T16:46:32.264Z,101476.84
2018-06-16T16:49:02.244Z,101475.70
2018-06-16T16:51:31.650Z,101472.14
2018-06-16T16:54:01.378Z,101476.25
2018-06-16T16:56:31.011Z,101476.05
2018-06-16T16:59:00.800Z,101478.09
2018-06-16T17:01:30.498Z,101477.87
2018-06-16T17:04:00.346Z,101475.00
2018-06-16T17:06:29.927Z,101477.16
2018-06-16T17:08:59.565Z,101478.19
2018-06-16T17:11:29.264Z,101482.25
2018-06-16T17:13:58.670Z,101479.36
2018-06-16T17:16:28.388Z,101470.28
2018-06-16T17:18:58.263Z,101472.38
2018-06-16T17:21:27.817Z,101466.75
2018-06-16T17:23:57.765Z,101479.06
2018-06-16T17:26:27.365Z,101476.39
2018-06-16T17:28:56.904Z,101476.25
2018-06-16T17:31:27.228Z,101485.59
2018-06-16T17:33:56.552Z,101365.23
2018-06-16T17:36:26.521Z,101484.10
2018-06-16T17:38:56.546Z,101485.22
2018-06-16T17:41:26.345Z,101483.38
2018-06-16T17:43:56.458Z,101481.13
2018-06-16T17:46:26.314Z,101476.70
2018-06-16T17:48:56.149Z,101481.72
2018-06-16T17:51:26.033Z,101479.95
2018-06-16T17:53:55.849Z,101482.19
2018-06-16T17:56:25.702Z,101485.16
2018-06-16T17:58:55.241Z,101492.32
2018-06-16T18:01:24.908Z,101494.33
2018-06-16T18:03:54.628Z,101483.00
2018-06-16T18:06:24.092Z,101486.50
2018-06-16T18:08:53.729Z,101462.75
2018-06-16T18:11:23.587Z,101458.81
2018-06-16T18:13:53.133Z,101451.30
2018-06-16T18:16:22.970Z,101450.64
2018-06-16T18:18:53.126Z,101444.73
2018-06-16T18:21:22.633Z,101453.17
2018-06-16T18:23:52.329Z,101448.86
2018-06-16T18:26:22.171Z,101448.03
2018-06-16T18:28:51.732Z,101451.74
2018-06-16T18:31:21.531Z,101448.24
2018-06-16T18:33:51.211Z,101443.19
2018-06-16T18:36:20.717Z,101435.29
2018-06-16T18:38:50.670Z,101426.47
2018-06-16T18:41:20.405Z,101414.66
2018-06-16T18:43:49.800Z,101396.64
2018-06-16T18:46:19.453Z,101366.20
2018-06-16T18:48:49.039Z,101381.79
2018-06-16T18:51:18.584Z,101380.23
2018-06-16T18:53:48.972Z,101379.39
2018-06-16T18:56:18.566Z,101392.24
2018-06-16T18:58:48.092Z,101397.38
2018-06-16T19:01:17.825Z,101391.66
2018-06-16T19:03:50.425Z,101391.26
2018-06-16T19:06:20.436Z,101391.27
2018-06-16T19:08:49.875Z,101392.29
2018-06-16T19:11:19.749Z,101382.34
2018-06-16T19:13:49.664Z,101338.45
2018-06-16T19:16:19.203Z,101356.61
2018-06-16T19:18:49.182Z,101357.78
2018-06-16T19:21:18.830Z,101364.72
2018-06-16T19:23:48.704Z,101364.17
2018-06-16T19:26:18.145Z,101364.50
2018-06-16T19:28:47.976Z,101362.39
2018-06-16T19:31:17.648Z,101355.86
2018-06-16T19:33:47.347Z,101354.68
2018-06-16T19:36:17.129Z,101351.81
2018-06-16T19:38:46.690Z,101354.29
2018-06-16T19:41:16.046Z,101360.73
2018-06-16T19:43:45.502Z,101359.34
2018-06-16T19:46:15.234Z,101364.77
2018-06-16T19:48:44.875Z,101362.13
2018-06-16T19:51:14.894Z,101359.57
2018-06-16T19:53:44.974Z,101355.08
2018-06-16T19:56:14.867Z,101357.44
2018-06-16T19:58:44.777Z,101360.99
2018-06-16T20:01:14.377Z,101367.62
2018-06-16T20:03:43.849Z,101360.00
2018-06-16T20:06:13.711Z,101352.59
2018-06-16T20:08:43.057Z,101358.43
2018-06-16T20:11:12.606Z,101355.53
2018-06-16T20:13:43.343Z,101326.25
2018-06-16T20:16:13.045Z,101358.05
2018-06-16T20:18:42.632Z,101358.59
2018-06-16T20:21:12.558Z,101351.30
2018-06-16T20:23:42.073Z,101365.26
2018-06-16T20:26:12.106Z,101369.59
2018-06-16T20:28:41.837Z,101376.73
2018-06-16T20:31:11.677Z,101373.92
2018-06-16T20:33:41.196Z,101374.64
2018-06-16T20:36:11.015Z,101368.89
2018-06-16T20:38:40.944Z,101373.04
2018-06-16T20:41:10.878Z,101371.81
2018-06-16T20:43:41.161Z,101376.00
2018-06-16T20:46:10.844Z,101379.55
2018-06-16T20:48:40.912Z,101384.87
2018-06-16T20:51:10.771Z,101381.20
2018-06-16T20:53:40.812Z,101387.75
2018-06-16T20:56:10.657Z,101391.75
2018-06-16T20:58:40.878Z,101392.59
2018-06-16T21:01:10.316Z,101399.92
2018-06-16T21:03:40.252Z,101406.33
2018-06-16T21:06:10.086Z,101400.22
2018-06-16T21:08:39.866Z,101398.55
2018-06-16T21:11:09.504Z,101400.55
2018-06-16T21:13:39.150Z,101397.98
2018-06-16T21:16:08.774Z,101402.41
2018-06-16T21:18:38.244Z,101404.88
2018-06-16T21:21:07.942Z,101397.75
2018-06-16T21:23:37.627Z,101393.27
2018-06-16T21:26:07.032Z,101382.69
2018-06-16T21:28:37.014Z,101385.25
2018-06-16T21:31:06.587Z,101380.88
2018-06-16T21:33:36.061Z,101372.91
2018-06-16T21:36:06.110Z,101374.62
2018-06-16T21:38:35.768Z,101372.31
2018-06-16T21:41:05.178Z,101354.45
2018-06-16T21:43:34.849Z,101351.70
2018-06-16T21:46:04.773Z,101352.09
2018-06-16T21:48:34.216Z,101354.39
2018-06-16T21:51:03.986Z,101339.53
2018-06-16T21:53:33.730Z,101343.98
2018-06-16T21:56:03.722Z,101341.32
2018-06-16T21:58:33.337Z,101334.27
2018-06-16T22:01:03.003Z,101327.58
2018-06-16T22:03:32.459Z,101330.70
2018-06-16T22:06:01.978Z,101325.57
2018-06-16T22:08:31.787Z,101318.95
2018-06-16T22:11:02.561Z,101319.77
2018-06-16T22:13:32.581Z,101324.59
2018-06-16T22:16:01.999Z,101319.38
2018-06-16T22:18:31.435Z,101317.64
2018-06-16T22:21:01.303Z,101316.18
2018-06-16T22:23:30.999Z,101319.28
2018-06-16T22:26:00.863Z,101305.22
2018-06-16T22:28:30.388Z,101307.48
2018-06-16T22:30:59.845Z,101311.47
2018-06-16T22:33:29.474Z,101304.48
2018-06-16T22:35:59.066Z,101301.91
2018-06-16T22:38:28.450Z,101301.03
2018-06-16T22:40:58.059Z,101301.04
2018-06-16T22:43:27.685Z,101299.30
2018-06-16T22:45:57.117Z,101289.62
2018-06-16T22:48:26.790Z,101288.52
2018-06-16T22:50:56.497Z,101289.52
2018-06-16T22:53:25.898Z,101289.11
2018-06-16T22:55:55.647Z,101288.27
2018-06-16T22:58:24.969Z,101286.86
2018-06-16T23:00:54.532Z,101288.80
2018-06-16T23:03:24.314Z,101284.81
2018-06-16T23:05:54.020Z,101284.81
2018-06-16T23:08:23.518Z,101291.55
2018-06-16T23:10:53.293Z,101280.13
2018-06-16T23:13:22.962Z,101254.17
2018-06-16T23:15:53.168Z,101279.91
2018-06-16T23:18:22.796Z,101274.83
2018-06-16T23:20:52.687Z,101282.47
2018-06-16T23:23:22.488Z,101277.03
2018-06-16T23:25:52.043Z,101270.84
2018-06-16T23:28:21.690Z,101264.61
2018-06-16T23:30:51.689Z,101264.61
2018-06-16T23:33:21.276Z,101261.95
2018-06-16T23:35:51.017Z,101265.49
2018-06-16T23:38:20.761Z,101256.30
2018-06-16T23:40:50.160Z,101255.05
2018-06-16T23:43:19.758Z,101244.00
2018-06-16T23:45:49.409Z,101240.02
2018-06-16T23:48:18.843Z,101241.88
2018-06-16T23:50:48.409Z,101203.28
2018-06-16T23:53:18.224Z,101235.69
2018-06-16T23:55:47.753Z,101227.77
2018-06-16T23:58:17.598Z,101231.44
